Time;durP1;ratioP1;P1;durP2;ratioP2;P2;SDS_P1;SDS_P2;PMS_P1;PMS_P2;Temp;Humidity;BMP_temperature;BMP_pressure;BME280_temperature;BME280_humidity;BME280_pressure;Samples;Min_cycle;Max_cycle;Signal;HPM_P1;HPM_P2
2023/11/12 00:01:48;;;;;;;14.75;9.50;;;;;;;4.99;72.22;98599.25;5114119;28;20045;-58
2023/11/12 00:04:14;;;;;;;16.23;10.43;;;;;;;5.01;71.78;98599.03;5114158;28;20568;-60
2023/11/12 00:06:40;;;;;;;15.48;9.85;;;;;;;5.01;72.07;98599.03;5112669;28;20131;-58
2023/11/12 00:09:08;;;;;;;17.77;10.30;;;;;;;5.03;71.66;98593.56;5114228;28;20039;-59
2023/11/12 00:11:34;;;;;;;17.50;10.75;;;;;;;5.02;71.94;98595.38;5113676;28;20043;-58
2023/11/12 00:14:00;;;;;;;17.88;10.68;;;;;;;5.06;71.61;98587.84;5114128;28;20047;-58
2023/11/12 00:16:27;;;;;;;18.35;10.90;;;;;;;5.06;71.57;98575.56;5112483;28;20043;-58
2023/11/12 00:18:54;;;;;;;16.50;10.00;;;;;;;5.03;71.89;98585.69;5114250;28;20043;-58
2023/11/12 00:21:20;;;;;;;15.77;11.13;;;;;;;4.94;71.64;98577.28;5114088;28;20043;-58
2023/11/12 00:23:47;;;;;;;18.35;10.93;;;;;;;4.86;72.15;98572.38;5112536;28;20100;-59
2023/11/12 00:26:15;;;;;;;16.98;10.32;;;;;;;4.86;72.48;98575.00;5113596;28;20050;-59
2023/11/12 00:28:48;;;;;;;16.85;10.40;;;;;;;4.82;72.26;98548.34;5112472;28;20051;-59
2023/11/12 00:31:14;;;;;;;16.45;9.85;;;;;;;4.80;73.09;98547.00;5095412;28;20176;-57
2023/11/12 00:33:40;;;;;;;17.27;10.50;;;;;;;4.76;72.82;98550.06;5111657;28;20075;-57
2023/11/12 00:36:06;;;;;;;16.05;9.90;;;;;;;4.74;73.10;98549.47;5112444;28;20505;-59
2023/11/12 00:38:32;;;;;;;19.10;11.27;;;;;;;4.77;73.62;98540.34;5113864;28;20040;-61
2023/11/12 00:40:58;;;;;;;17.27;11.05;;;;;;;4.76;73.35;98542.19;5112172;28;20040;-58
2023/11/12 00:43:27;;;;;;;19.83;11.65;;;;;;;4.77;73.64;98542.97;5113748;28;20048;-58
2023/11/12 00:45:58;;;;;;;22.02;11.45;;;;;;;4.80;72.81;98539.91;5112259;28;20181;-57
2023/11/12 00:48:24;;;;;;;20.38;11.45;;;;;;;4.82;72.82;98534.41;5113500;28;20581;-58
2023/11/12 00:50:49;;;;;;;21.00;11.90;;;;;;;4.85;73.65;98537.41;5094261;28;20138;-57
2023/11/12 00:53:15;;;;;;;19.48;11.50;;;;;;;4.87;73.51;98537.19;5111830;28;20040;-58
2023/11/12 00:55:41;;;;;;;19.58;11.35;;;;;;;4.91;73.48;98526.03;5113465;28;20069;-58
2023/11/12 00:58:06;;;;;;;17.70;11.25;;;;;;;4.97;72.35;98519.06;5112009;28;20192;-57
2023/11/12 01:00:32;;;;;;;22.60;11.55;;;;;;;4.93;72.44;98507.41;5112034;28;20035;-57
2023/11/12 01:02:58;;;;;;;17.38;10.85;;;;;;;4.89;73.15;98507.06;5113022;28;20109;-58
2023/11/12 01:05:24;;;;;;;17.73;10.07;;;;;;;4.83;73.79;98507.16;5094432;28;20047;-58
2023/11/12 01:07:49;;;;;;;18.08;11.32;;;;;;;4.87;73.83;98495.19;5113144;28;20070;-58
2023/11/12 01:10:15;;;;;;;19.42;11.88;;;;;;;4.81;73.53;98491.63;5113098;28;20089;-59
2023/11/12 01:12:41;;;;;;;22.33;10.65;;;;;;;4.80;74.30;98484.75;5111346;28;20485;-58
2023/11/12 01:15:08;;;;;;;20.63;11.95;;;;;;;4.85;73.64;98484.09;5113060;28;20053;-59
2023/11/12 01:17:33;;;;;;;19.05;11.07;;;;;;;4.91;73.63;98488.44;5111484;28;20058;-57
2023/11/12 01:20:00;;;;;;;22.45;12.45;;;;;;;4.84;74.43;98480.66;5112537;28;20048;-58
2023/11/12 01:22:27;;;;;;;18.85;10.95;;;;;;;4.85;73.88;98476.22;5112712;27;20092;-58
2023/11/12 01:24:53;;;;;;;21.45;12.38;;;;;;;4.84;74.50;98472.00;5111538;28;20031;-57
2023/11/12 01:27:19;;;;;;;22.52;11.48;;;;;;;4.85;74.69;98481.47;5111168;28;20469;-58
2023/11/12 01:29:44;;;;;;;19.02;10.88;;;;;;;4.74;74.81;98462.03;5111047;28;20035;-58
2023/11/12 01:32:10;;;;;;;21.73;12.20;;;;;;;4.80;75.06;98462.97;5112467;28;20331;-56
2023/11/12 01:34:36;;;;;;;21.90;12.05;;;;;;;4.82;76.56;98459.06;5112346;28;20040;-57
2023/11/12 01:37:02;;;;;;;22.50;12.00;;;;;;;4.82;76.05;98447.78;5111991;28;20043;-57
2023/11/12 01:39:27;;;;;;;20.02;11.45;;;;;;;4.83;77.34;98444.94;5110746;28;20074;-56
2023/11/12 01:41:54;;;;;;;20.98;12.07;;;;;;;4.78;76.96;98431.66;5110619;28;20097;-59
2023/11/12 01:44:20;;;;;;;20.77;11.40;;;;;;;4.72;77.81;98433.34;5112133;28;20035;-60
2023/11/12 01:46:45;;;;;;;23.60;12.63;;;;;;;4.74;78.62;98422.66;5112037;28;20542;-58
2023/11/12 01:49:11;;;;;;;23.58;12.65;;;;;;;4.73;78.42;98427.06;5110989;28;20046;-58
2023/11/12 01:51:37;;;;;;;21.00;12.25;;;;;;;4.76;78.73;98426.66;5093902;28;20050;-57
2023/11/12 01:54:03;;;;;;;21.63;12.27;;;;;;;4.74;79.30;98428.69;5111094;28;20043;-58
2023/11/12 01:56:31;;;;;;;18.83;11.25;;;;;;;4.74;78.92;98431.31;5111054;28;20036;-58
2023/11/12 01:58:58;;;;;;;21.38;11.82;;;;;;;4.75;79.48;98417.16;5110657;28;20527;-58
2023/11/12 02:01:24;;;;;;;24.67;12.35;;;;;;;4.66;79.87;98408.00;5093718;28;20051;-56
2023/11/12 02:03:51;;;;;;;18.67;9.98;;;;;;;4.52;80.02;98406.56;5110781;28;20521;-57
2023/11/12 02:06:17;;;;;;;18.13;10.15;;;;;;;4.48;81.05;98415.91;5110965;28;20079;-58
2023/11/12 02:08:43;;;;;;;19.38;11.07;;;;;;;4.51;82.41;98404.97;5110477;28;20423;-58
2023/11/12 02:11:11;;;;;;;18.55;10.95;;;;;;;4.54;82.15;98407.94;5093743;28;20043;-58
2023/11/12 02:13:38;;;;;;;20.02;11.40;;;;;;;4.54;82.19;98400.06;5111633;28;20056;-57
2023/11/12 02:16:05;;;;;;;19.20;10.52;;;;;;;4.50;82.65;98395.47;5110893;28;20496;-57
2023/11/12 02:18:30;;;;;;;18.23;11.15;;;;;;;4.40;83.42;98388.16;5112157;28;20043;-57
2023/11/12 02:20:56;;;;;;;22.40;11.85;;;;;;;4.37;82.80;98388.59;5112082;28;20036;-57
2023/11/12 02:23:22;;;;;;;23.63;11.85;;;;;;;4.35;84.06;98382.75;5110503;28;20047;-57
2023/11/12 02:25:48;;;;;;;22.10;12.35;;;;;;;4.36;83.68;98371.25;5110833;28;20046;-58
2023/11/12 02:28:16;;;;;;;25.27;11.77;;;;;;;4.40;83.53;98369.00;5093492;28;20565;-58
2023/11/12 02:30:42;;;;;;;24.80;12.35;;;;;;;4.48;83.13;98358.19;5110485;28;20036;-57
2023/11/12 02:33:09;;;;;;;22.33;12.00;;;;;;;4.50;84.20;98359.56;5110562;28;20051;-58
2023/11/12 02:35:36;;;;;;;23.52;12.90;;;;;;;4.49;83.94;98349.28;5110189;28;20463;-58
2023/11/12 02:38:04;;;;;;;22.23;13.07;;;;;;;4.43;84.02;98334.44;5109967;28;20040;-56
2023/11/12 02:40:30;;;;;;;22.83;11.68;;;;;;;4.38;84.12;98329.03;5111430;28;20077;-58
2023/11/12 02:42:56;;;;;;;21.85;13.05;;;;;;;4.41;84.08;98326.78;5109974;28;20504;-58
2023/11/12 02:45:21;;;;;;;23.35;13.32;;;;;;;4.37;84.17;98316.97;5111457;28;20040;-59
2023/11/12 02:47:47;;;;;;;21.27;12.70;;;;;;;4.26;84.28;98302.75;5109827;28;20481;-58
2023/11/12 02:50:31;;;;;;;22.25;11.73;;;;;;;4.24;85.24;98297.75;5093695;28;20046;-58
2023/11/12 02:53:01;;;;;;;23.92;13.00;;;;;;;4.26;84.99;98294.91;5110336;28;20047;-56
2023/11/12 02:55:29;;;;;;;23.73;12.55;;;;;;;4.20;85.37;98283.47;5113200;28;20040;-58
2023/11/12 02:57:55;;;;;;;23.17;13.15;;;;;;;4.20;85.55;98283.47;5114189;28;20047;-57
2023/11/12 03:00:21;;;;;;;20.70;12.43;;;;;;;4.10;85.92;98270.91;5114372;28;20497;-58
2023/11/12 03:02:47;;;;;;;22.75;12.15;;;;;;;4.04;86.29;98269.16;5113885;28;20036;-55
2023/11/12 03:05:16;;;;;;;25.75;13.48;;;;;;;4.08;86.58;98269.50;5115589;28;20039;-59
2023/11/12 03:07:42;;;;;;;21.85;12.88;;;;;;;4.06;86.81;98258.47;5114021;28;20183;-58
2023/11/12 03:10:08;;;;;;;24.77;13.25;;;;;;;3.95;87.61;98248.72;5114343;28;20035;-59
2023/11/12 03:12:38;;;;;;;21.90;12.57;;;;;;;3.92;87.46;98231.63;5096649;28;20058;-57
2023/11/12 03:15:06;;;;;;;25.70;13.83;;;;;;;3.90;88.50;98231.03;5115378;28;20507;-58
2023/11/12 03:17:34;;;;;;;20.80;11.27;;;;;;;3.89;88.24;98241.75;5115417;28;20420;-58
2023/11/12 03:20:04;;;;;;;20.50;11.48;;;;;;;3.91;88.10;98226.59;5113648;28;20040;-58
2023/11/12 03:22:34;;;;;;;20.38;11.95;;;;;;;3.93;87.99;98224.53;5096891;28;20036;-58
2023/11/12 03:25:01;;;;;;;18.73;11.15;;;;;;;3.87;87.62;98215.75;5115345;28;20216;-59
2023/11/12 03:27:27;;;;;;;16.10;10.45;;;;;;;3.85;87.88;98212.53;5113818;28;20454;-59
2023/11/12 03:29:53;;;;;;;21.17;11.60;;;;;;;3.81;88.24;98206.94;5113601;28;20046;-58
2023/11/12 03:32:22;;;;;;;21.35;12.48;;;;;;;3.83;88.53;98204.91;5115125;28;20043;-57
2023/11/12 03:34:53;;;;;;;20.33;12.65;;;;;;;3.89;88.28;98212.91;5116069;28;20039;-57
2023/11/12 03:37:20;;;;;;;22.42;12.70;;;;;;;3.81;87.71;98206.16;5115683;28;20059;-58
2023/11/12 03:39:47;;;;;;;20.67;12.00;;;;;;;3.93;88.06;98198.31;5116177;27;20035;-54
2023/11/12 03:42:15;;;;;;;19.85;11.90;;;;;;;3.93;87.97;98195.72;5114563;28;20059;-56
2023/11/12 03:44:46;;;;;;;23.77;12.68;;;;;;;3.93;87.54;98198.31;5115346;28;20059;-56
2023/11/12 03:47:12;;;;;;;;;;;;;;;3.94;87.43;98199.91;5096992;28;20044;-56
2023/11/12 03:49:41;;;;;;;24.73;13.68;;;;;;;3.96;87.38;98190.00;5113492;28;19920;-55
2023/11/12 03:52:08;;;;;;;24.70;14.20;;;;;;;3.94;87.11;98192.88;5113019;28;20139;-58
2023/11/12 03:54:35;;;;;;;20.88;13.20;;;;;;;3.97;86.97;98179.31;5114108;28;20057;-58
2023/11/12 03:57:01;;;;;;;19.08;12.38;;;;;;;3.97;86.62;98183.75;5114187;28;20054;-57
2023/11/12 03:59:27;;;;;;;22.80;13.65;;;;;;;3.98;87.15;98174.88;5113892;28;20521;-59
2023/11/12 04:01:52;;;;;;;25.73;14.82;;;;;;;4.01;86.85;98180.47;5113076;28;20069;-57
2023/11/12 04:04:18;;;;;;;21.15;12.98;;;;;;;3.99;86.29;98172.00;5095860;28;20533;-60
2023/11/12 04:06:44;;;;;;;19.73;12.07;;;;;;;4.01;86.40;98163.94;5112725;28;20078;-57
2023/11/12 04:09:10;;;;;;;20.33;11.85;;;;;;;3.95;86.91;98156.97;5113003;28;20382;-58
2023/11/12 04:11:37;;;;;;;20.80;12.45;;;;;;;3.94;86.74;98144.88;5114370;28;20096;-56
2023/11/12 04:14:03;;;;;;;18.08;11.20;;;;;;;3.87;86.38;98135.28;5114139;27;20103;-56
2023/11/12 04:16:29;;;;;;;16.55;9.93;;;;;;;3.90;86.31;98148.97;5114231;28;20126;-57
2023/11/12 04:18:55;;;;;;;19.50;11.82;;;;;;;3.96;86.61;98135.75;5113683;28;20055;-55
2023/11/12 04:21:21;;;;;;;16.77;10.05;;;;;;;3.99;85.70;98150.25;5095603;28;20050;-57
2023/11/12 04:23:48;;;;;;;16.30;10.45;;;;;;;4.01;86.01;98137.72;5112622;28;20551;-58
2023/11/12 04:26:13;;;;;;;14.40;9.50;;;;;;;4.03;85.41;98136.47;5112733;28;20048;-58
2023/11/12 04:28:39;;;;;;;16.23;9.60;;;;;;;4.02;85.09;98129.59;5113460;28;20051;-61
2023/11/12 04:31:05;;;;;;;13.80;9.50;;;;;;;4.03;85.17;98125.97;5112264;28;20043;-57
2023/11/12 04:33:31;;;;;;;13.48;8.77;;;;;;;4.03;84.51;98114.66;5112131;28;20047;-54
2023/11/12 04:35:57;;;;;;;13.38;7.95;;;;;;;4.02;84.88;98097.34;5110159;28;20044;-55
2023/11/12 04:38:22;;;;;;;14.70;8.43;;;;;;;4.03;84.92;98101.56;5111127;28;20116;-56
2023/11/12 04:40:50;;;;;;;11.55;7.35;;;;;;;4.00;84.09;98100.22;5112364;28;20050;-55
2023/11/12 04:43:16;;;;;;;13.18;7.88;;;;;;;4.01;84.50;98093.13;5112170;28;20408;-57
2023/11/12 04:45:42;;;;;;;14.00;8.68;;;;;;;3.98;85.23;98083.09;5112492;28;20043;-58
2023/11/12 04:48:08;;;;;;;14.52;8.70;;;;;;;3.93;84.74;98075.91;5113778;28;20122;-57
2023/11/12 04:50:37;;;;;;;14.75;8.10;;;;;;;3.94;85.09;98079.31;5113497;28;20043;-57
2023/11/12 04:53:02;;;;;;;12.15;7.35;;;;;;;3.86;84.68;98075.22;5094909;28;20058;-59
2023/11/12 04:55:28;;;;;;;11.40;7.22;;;;;;;3.85;84.89;98063.94;5111903;28;20031;-59
2023/11/12 04:57:54;;;;;;;13.50;8.00;;;;;;;3.85;85.34;98050.84;5113413;28;20051;-57
2023/11/12 05:00:20;;;;;;;11.85;7.55;;;;;;;3.77;84.96;98055.59;5113182;28;20040;-62
2023/11/12 05:02:45;;;;;;;13.65;8.32;;;;;;;3.79;85.24;98046.47;5113183;28;20587;-59
2023/11/12 05:05:11;;;;;;;11.60;6.45;;;;;;;3.79;85.63;98040.44;5111668;28;20481;-59
2023/11/12 05:07:38;;;;;;;10.35;7.10;;;;;;;3.81;85.52;98046.25;5111776;28;20074;-57
2023/11/12 05:10:05;;;;;;;13.23;8.27;;;;;;;3.84;85.80;98046.59;5112645;28;20476;-55
2023/11/12 05:12:31;;;;;;;10.70;7.50;;;;;;;3.86;85.14;98041.94;5112641;28;20516;-58
2023/11/12 05:14:57;;;;;;;10.32;7.20;;;;;;;3.88;85.02;98044.31;5112653;28;20050;-58
2023/11/12 05:17:22;;;;;;;12.65;6.78;;;;;;;3.90;85.19;98052.75;5093883;28;20047;-57
2023/11/12 05:19:48;;;;;;;10.90;6.18;;;;;;;3.85;85.53;98036.91;5112440;28;20039;-56
2023/11/12 05:22:14;;;;;;;11.52;7.10;;;;;;;3.84;85.87;98032.69;5112922;28;20171;-58
2023/11/12 05:24:39;;;;;;;11.10;6.82;;;;;;;3.91;85.17;98027.34;5112810;28;20285;-59
2023/11/12 05:27:05;;;;;;;10.50;6.72;;;;;;;3.94;85.91;98037.38;5111333;28;20053;-60
2023/11/12 05:29:31;;;;;;;11.18;6.95;;;;;;;3.99;85.27;98017.31;5112616;28;20182;-60
2023/11/12 05:31:57;;;;;;;12.07;7.68;;;;;;;3.96;84.87;98015.16;5111766;28;20051;-58
2023/11/12 05:34:24;;;;;;;11.52;6.50;;;;;;;3.99;85.13;98019.94;5112181;28;20047;-59
2023/11/12 05:36:49;;;;;;;12.32;8.10;;;;;;;3.93;86.02;98005.13;5111296;28;20087;-57
2023/11/12 05:39:15;;;;;;;12.27;7.63;;;;;;;3.96;85.60;98004.66;5112387;28;20032;-57
2023/11/12 05:41:41;;;;;;;13.93;7.43;;;;;;;3.99;85.89;98006.81;5112444;28;20409;-58
2023/11/12 05:44:07;;;;;;;13.30;7.95;;;;;;;4.04;85.55;97996.44;5112482;28;20039;-59
2023/11/12 05:46:33;;;;;;;14.52;8.30;;;;;;;4.15;85.01;97991.41;5112043;28;20039;-59
2023/11/12 05:48:58;;;;;;;12.80;7.70;;;;;;;4.12;84.86;97997.94;5111620;28;20040;-59
2023/11/12 05:51:24;;;;;;;13.15;8.52;;;;;;;4.07;84.67;97996.00;5111065;28;20084;-61
2023/11/12 05:53:50;;;;;;;12.20;8.05;;;;;;;4.07;84.47;97988.13;5111321;28;20051;-61
2023/11/12 05:56:15;;;;;;;13.13;7.75;;;;;;;4.14;85.09;97967.03;5112816;28;20065;-60
2023/11/12 05:58:41;;;;;;;17.45;8.55;;;;;;;4.12;84.95;97961.22;5111742;28;20055;-61
2023/11/12 06:01:07;;;;;;;13.93;8.75;;;;;;;4.15;84.79;97960.75;5110837;28;20036;-60
2023/11/12 06:03:32;;;;;;;13.15;8.35;;;;;;;4.09;84.80;97961.69;5111291;28;20050;-57
2023/11/12 06:05:58;;;;;;;12.80;8.50;;;;;;;4.05;85.14;97955.28;5112471;28;20253;-60
2023/11/12 06:08:24;;;;;;;12.55;7.28;;;;;;;4.10;84.93;97950.16;5112899;28;20096;-59
2023/11/12 06:10:50;;;;;;;13.75;8.07;;;;;;;4.01;85.21;97941.06;5093729;28;20035;-60
2023/11/12 06:13:15;;;;;;;12.23;8.25;;;;;;;4.01;85.38;97946.31;5093320;28;20066;-59
2023/11/12 06:15:41;;;;;;;13.35;8.02;;;;;;;4.00;85.36;97935.03;5112151;28;20047;-61
2023/11/12 06:18:08;;;;;;;11.88;7.22;;;;;;;3.99;84.69;97928.16;5110957;28;20048;-61
2023/11/12 06:20:33;;;;;;;12.80;8.18;;;;;;;4.10;84.91;97922.09;5111838;28;20067;-60
2023/11/12 06:22:59;;;;;;;13.98;8.40;;;;;;;4.10;84.58;97921.31;5112617;28;20070;-58
2023/11/12 06:25:25;;;;;;;13.73;8.48;;;;;;;4.10;85.09;97910.81;5112306;28;20035;-59
2023/11/12 06:27:52;;;;;;;13.57;8.07;;;;;;;4.08;84.47;97905.81;5077717;28;20171;-58
2023/11/12 06:30:17;;;;;;;13.38;8.20;;;;;;;4.10;84.95;97900.34;5114261;28;20054;-60
2023/11/12 06:32:43;;;;;;;11.25;7.28;;;;;;;4.08;84.30;97905.81;5115843;28;20047;-57
2023/11/12 06:35:09;;;;;;;13.75;7.43;;;;;;;4.02;84.26;97895.44;5116031;28;20036;-59
2023/11/12 06:37:35;;;;;;;11.90;7.50;;;;;;;4.00;84.06;97898.31;5115915;28;20043;-59
2023/11/12 06:40:01;;;;;;;12.13;7.78;;;;;;;3.99;84.39;97886.22;5097378;28;20043;-60
2023/11/12 06:42:27;;;;;;;11.35;7.47;;;;;;;3.98;84.37;97875.97;5114226;28;20089;-60
2023/11/12 06:44:53;;;;;;;13.75;7.75;;;;;;;4.01;84.40;97863.19;5114427;28;20044;-59
2023/11/12 06:47:19;;;;;;;14.85;8.07;;;;;;;4.06;83.71;97863.31;5115950;28;20131;-62
2023/11/12 06:49:44;;;;;;;13.07;7.63;;;;;;;4.07;83.53;97872.75;5097292;28;20534;-60
2023/11/12 06:52:10;;;;;;;12.52;7.78;;;;;;;4.02;84.01;97862.16;5115690;28;20043;-60
2023/11/12 06:54:36;;;;;;;13.40;7.80;;;;;;;4.06;83.52;97860.69;5115482;28;20432;-61
2023/11/12 06:57:01;;;;;;;13.48;7.57;;;;;;;4.07;83.17;97859.63;5114346;28;20039;-59
2023/11/12 06:59:28;;;;;;;11.25;6.88;;;;;;;4.00;83.53;97853.75;5115647;28;20046;-59
2023/11/12 07:01:54;;;;;;;12.50;7.22;;;;;;;3.97;83.51;97840.28;5114692;28;20438;-58
2023/11/12 07:04:20;;;;;;;11.45;7.43;;;;;;;3.91;84.23;97838.59;5115605;28;20127;-58
2023/11/12 07:06:46;;;;;;;10.30;6.82;;;;;;;3.87;83.23;97828.56;5115183;28;20039;-59
2023/11/12 07:09:12;;;;;;;12.63;7.40;;;;;;;3.90;83.79;97822.06;5115530;28;20104;-60
2023/11/12 07:11:38;;;;;;;10.55;7.10;;;;;;;3.94;84.04;97811.91;5115340;28;20040;-60
2023/11/12 07:14:04;;;;;;;12.15;7.63;;;;;;;3.96;84.19;97813.28;5113518;28;20104;-57
2023/11/12 07:16:30;;;;;;;9.57;6.55;;;;;;;3.92;83.35;97819.22;5115153;28;20043;-58
2023/11/12 07:18:56;;;;;;;12.25;7.32;;;;;;;3.91;83.61;97813.16;5114068;28;20036;-60
2023/11/12 07:21:30;;;;;;;12.35;7.72;;;;;;;3.90;84.37;97811.59;5114070;28;20039;-62
2023/11/12 07:23:56;;;;;;;10.77;6.43;;;;;;;3.94;83.90;97799.63;5114549;28;20126;-61
2023/11/12 07:26:24;;;;;;;12.80;7.22;;;;;;;3.90;84.39;97805.56;5114552;28;20027;-58
2023/11/12 07:28:53;;;;;;;14.93;8.30;;;;;;;3.94;85.01;97789.13;5113309;28;20039;-60
2023/11/12 07:31:22;;;;;;;14.82;7.65;;;;;;;3.95;84.71;97797.78;5111853;28;20092;-61
2023/11/12 07:33:48;;;;;;;11.75;7.57;;;;;;;3.87;85.55;97789.25;5114722;28;20047;-62
2023/11/12 07:36:15;;;;;;;12.60;7.35;;;;;;;3.76;86.06;97784.84;5112903;28;20127;-63
2023/11/12 07:38:41;;;;;;;10.57;5.93;;;;;;;3.70;86.37;97785.75;5114763;28;20101;-60
2023/11/12 07:41:07;;;;;;;12.68;6.90;;;;;;;3.70;88.00;97791.00;5113461;28;20035;-62
2023/11/12 07:43:37;;;;;;;9.30;5.55;;;;;;;3.71;88.37;97776.91;5114523;28;20043;-59
2023/11/12 07:46:03;;;;;;;11.60;6.22;;;;;;;3.67;88.69;97770.50;5113118;28;20081;-61
2023/11/12 07:48:30;;;;;;;9.90;6.35;;;;;;;3.65;89.17;97780.44;5114843;28;20085;-60
2023/11/12 07:50:59;;;;;;;10.50;6.35;;;;;;;3.63;89.94;97775.41;5114674;28;20035;-59
2023/11/12 07:53:28;;;;;;;10.70;6.40;;;;;;;3.58;89.18;97764.03;5114455;28;20073;-58
2023/11/12 07:55:54;;;;;;;10.90;6.07;;;;;;;3.54;90.00;97765.53;5113843;28;20424;-59
2023/11/12 07:58:20;;;;;;;10.00;6.15;;;;;;;3.57;91.81;97749.34;5112489;28;20044;-59
2023/11/12 08:00:46;;;;;;;10.40;6.53;;;;;;;3.55;90.37;97743.53;5114417;28;20035;-61
2023/11/12 08:03:12;;;;;;;10.43;5.97;;;;;;;3.51;90.54;97745.84;5112655;28;20036;-61
2023/11/12 08:05:38;;;;;;;10.25;6.22;;;;;;;3.49;90.93;97749.72;5113322;28;20104;-62
2023/11/12 08:08:04;;;;;;;9.45;6.03;;;;;;;3.51;90.67;97742.44;5112770;28;20055;-60
2023/11/12 08:10:30;;;;;;;8.85;5.50;;;;;;;3.40;90.31;97739.59;5114040;28;20040;-60
2023/11/12 08:12:58;;;;;;;11.70;6.55;;;;;;;3.39;92.98;97731.97;5112287;28;20436;-60
2023/11/12 08:15:23;;;;;;;11.25;6.35;;;;;;;3.26;92.50;97730.38;5114145;28;20089;-63
2023/11/12 08:17:49;;;;;;;10.25;6.63;;;;;;;3.28;94.54;97724.94;5111783;28;20468;-61
2023/11/12 08:20:15;;;;;;;10.57;6.55;;;;;;;3.23;93.85;97716.97;5111769;28;20036;-60
2023/11/12 08:22:41;;;;;;;9.75;6.07;;;;;;;3.24;93.17;97727.22;5092902;28;20039;-59
2023/11/12 08:25:09;;;;;;;10.40;5.78;;;;;;;3.28;93.46;97720.50;5112085;28;20039;-59
2023/11/12 08:27:35;;;;;;;12.02;6.53;;;;;;;3.33;93.41;97714.56;5112113;28;20043;-60
2023/11/12 08:30:01;;;;;;;12.10;7.45;;;;;;;3.40;93.89;97705.53;5110787;28;20420;-61
2023/11/12 08:32:27;;;;;;;9.45;6.13;;;;;;;3.41;92.72;97690.59;5111434;28;20044;-59
2023/11/12 08:34:53;;;;;;;9.43;5.30;;;;;;;3.32;91.48;97674.47;5112886;28;20035;-61
2023/11/12 08:37:19;;;;;;;9.43;5.68;;;;;;;3.33;92.08;97675.28;5111907;28;20452;-59
2023/11/12 08:39:45;;;;;;;10.68;5.95;;;;;;;3.30;93.25;97666.06;5095276;28;20040;-60
2023/11/12 08:42:11;;;;;;;9.38;6.25;;;;;;;3.31;93.31;97670.25;5112411;28;20043;-59
2023/11/12 08:44:36;;;;;;;10.57;6.30;;;;;;;3.31;94.05;97672.09;5113466;28;20035;-62
2023/11/12 08:47:03;;;;;;;6.88;5.00;;;;;;;3.25;93.33;97665.16;5113441;28;20548;-59
2023/11/12 08:49:32;;;;;;;8.07;5.25;;;;;;;3.29;93.47;97685.41;5112396;28;20032;-59
2023/11/12 08:51:59;;;;;;;9.77;6.00;;;;;;;3.29;94.06;97664.44;5111312;28;20040;-60
2023/11/12 08:54:25;;;;;;;10.32;6.38;;;;;;;3.32;93.86;97669.22;5110797;28;20048;-60
2023/11/12 08:56:53;;;;;;;9.55;5.90;;;;;;;3.38;94.17;97675.34;5111537;28;20077;-60
2023/11/12 08:59:19;;;;;;;8.50;5.38;;;;;;;3.28;94.09;97660.25;5113672;28;20377;-59
2023/11/12 09:01:44;;;;;;;10.65;6.65;;;;;;;3.36;94.77;97661.72;5112854;28;20046;-60
2023/11/12 09:04:10;;;;;;;8.70;5.43;;;;;;;3.38;94.37;97654.41;5112026;28;20122;-62
2023/11/12 09:06:36;;;;;;;8.35;4.85;;;;;;;3.39;93.47;97640.31;5113006;28;20492;-60
2023/11/12 09:09:04;;;;;;;6.70;4.75;;;;;;;3.37;93.36;97643.13;5111889;28;20035;-59
2023/11/12 09:11:34;;;;;;;7.35;4.65;;;;;;;3.28;93.38;97628.84;5112758;28;20039;-61
2023/11/12 09:14:03;;;;;;;6.32;4.50;;;;;;;3.30;94.40;97628.63;5112608;28;20056;-61
2023/11/12 09:16:33;;;;;;;8.55;5.25;;;;;;;3.24;94.78;97627.72;5111513;28;20039;-62
2023/11/12 09:19:00;;;;;;;9.27;5.50;;;;;;;3.14;94.88;97615.19;5094928;28;20040;-60
2023/11/12 09:21:30;;;;;;;7.38;4.53;;;;;;;3.16;95.57;97605.31;5111231;28;20179;-62
2023/11/12 09:23:57;;;;;;;10.45;5.63;;;;;;;3.17;95.94;97603.47;5111314;28;20036;-62
2023/11/12 09:26:23;;;;;;;5.70;3.72;;;;;;;3.14;95.44;97594.25;5112527;28;20516;-60
2023/11/12 09:28:52;;;;;;;5.63;4.45;;;;;;;3.15;95.07;97603.72;5112891;28;20514;-59
2023/11/12 09:31:19;;;;;;;8.23;4.50;;;;;;;3.13;94.87;97591.88;5112760;28;20044;-61
2023/11/12 09:33:46;;;;;;;8.48;4.90;;;;;;;3.11;95.01;97588.69;5112754;28;20052;-60
2023/11/12 09:36:15;;;;;;;8.57;4.95;;;;;;;3.13;95.46;97579.59;5112430;28;20040;-60
2023/11/12 09:38:41;;;;;;;6.28;4.28;;;;;;;3.20;95.00;97563.72;5111804;28;20035;-61
2023/11/12 09:41:09;;;;;;;7.05;4.25;;;;;;;3.22;94.51;97564.31;5111640;28;20492;-59
2023/11/12 09:43:35;;;;;;;6.43;4.55;;;;;;;3.24;94.00;97559.63;5112668;28;20130;-59
2023/11/12 09:46:06;;;;;;;6.22;4.28;;;;;;;3.18;93.63;97540.41;5110901;28;20142;-62
2023/11/12 09:48:38;;;;;;;8.02;4.78;;;;;;;3.23;93.66;97541.53;5109722;28;20047;-62
2023/11/12 09:51:09;;;;;;;5.88;3.85;;;;;;;3.21;94.14;97538.34;5111522;28;20543;-60
2023/11/12 09:53:41;;;;;;;7.13;4.63;;;;;;;3.28;93.63;97528.53;5110911;28;20043;-60
2023/11/12 09:56:10;;;;;;;11.57;5.90;;;;;;;3.33;93.22;97526.00;5111574;28;20047;-60
2023/11/12 09:58:45;;;;;;;8.30;5.47;;;;;;;3.31;93.52;97531.47;5110858;28;20043;-60
2023/11/12 10:01:13;;;;;;;6.85;4.45;;;;;;;3.31;92.82;97522.81;5111815;28;20051;-61
2023/11/12 10:03:40;;;;;;;7.75;5.15;;;;;;;3.35;92.91;97519.50;5090261;28;20413;-60
2023/11/12 10:06:07;;;;;;;8.65;5.50;;;;;;;3.38;93.53;97515.59;5091749;28;20114;-60
2023/11/12 10:08:35;;;;;;;9.27;4.68;;;;;;;3.39;93.25;97512.75;5090402;28;20594;-58
2023/11/12 10:11:21;;;;;;;6.57;4.85;;;;;;;3.40;93.38;97505.69;5091508;28;20130;-61
2023/11/12 10:13:48;;;;;;;6.85;4.60;;;;;;;3.49;93.51;97506.88;5083857;28;20091;-60
2023/11/12 10:16:31;;;;;;;6.30;4.10;;;;;;;3.55;92.22;97505.13;5108850;28;20435;-60
2023/11/12 10:19:14;;;;;;;7.90;4.32;;;;;;;3.53;91.69;97483.63;5109600;28;20035;-55
2023/11/12 10:21:56;;;;;;;4.40;3.47;;;;;;;3.55;91.91;97490.22;5110134;28;20089;-58
2023/11/12 10:24:23;;;;;;;7.20;4.50;;;;;;;3.62;92.39;97482.22;5110544;28;20044;-57
2023/11/12 10:26:49;;;;;;;6.38;4.43;;;;;;;3.69;91.76;97474.97;5111266;28;20027;-57
2023/11/12 10:29:21;;;;;;;7.20;4.25;;;;;;;3.69;91.29;97469.72;5111516;28;20051;-59
2023/11/12 10:31:51;;;;;;;7.70;4.38;;;;;;;3.75;91.27;97453.03;5108923;28;20097;-58
2023/11/12 10:34:17;;;;;;;5.97;4.23;;;;;;;3.82;92.00;97458.94;5111777;28;20495;-59
2023/11/12 10:37:10;;;;;;;5.70;3.97;;;;;;;3.81;91.58;97449.47;5111319;28;20043;-58
2023/11/12 10:39:43;;;;;;;6.03;4.50;;;;;;;3.80;92.27;97445.25;5111530;28;20500;-59
2023/11/12 10:42:17;;;;;;;8.82;4.82;;;;;;;3.83;92.61;97428.25;5111815;28;20040;-59
2023/11/12 10:44:43;;;;;;;6.07;4.38;;;;;;;3.91;92.28;97427.81;5111635;28;20051;-58
2023/11/12 10:47:11;;;;;;;7.60;4.60;;;;;;;3.82;92.02;97427.47;5111762;28;20047;-57
2023/11/12 10:49:39;;;;;;;8.00;4.40;;;;;;;3.81;92.09;97417.22;5109381;28;20048;-57
2023/11/12 10:52:08;;;;;;;8.38;5.00;;;;;;;3.84;92.54;97417.53;5088284;28;20127;-59
2023/11/12 10:54:35;;;;;;;6.55;4.35;;;;;;;3.82;91.76;97422.22;5090876;28;20072;-61
2023/11/12 10:57:01;;;;;;;6.63;4.70;;;;;;;3.86;91.74;97417.28;5090976;28;20607;-60
2023/11/12 10:59:29;;;;;;;7.55;5.38;;;;;;;3.90;91.59;97409.75;5090893;28;20040;-59
2023/11/12 11:01:58;;;;;;;7.25;3.85;;;;;;;3.88;91.40;97402.09;5093605;28;20068;-59
2023/11/12 11:04:26;;;;;;;8.98;5.55;;;;;;;3.93;93.32;97399.56;5111289;28;20044;-59
2023/11/12 11:06:52;;;;;;;7.40;4.40;;;;;;;3.91;92.85;97395.59;5110580;28;20055;-61
2023/11/12 11:09:20;;;;;;;5.93;4.45;;;;;;;3.93;92.33;97396.16;5093200;28;20059;-59
2023/11/12 11:11:48;;;;;;;8.77;5.22;;;;;;;3.92;92.29;97408.47;5090499;28;20043;-60
2023/11/12 11:14:21;;;;;;;6.43;5.00;;;;;;;3.90;93.52;97386.94;5089169;28;20602;-60
2023/11/12 11:16:47;;;;;;;6.25;4.28;;;;;;;3.82;93.11;97375.06;5092567;28;20040;-60
2023/11/12 11:19:14;;;;;;;6.28;4.40;;;;;;;3.89;94.41;97368.84;5093162;28;20051;-58
2023/11/12 11:21:40;;;;;;;7.25;4.43;;;;;;;3.94;94.24;97371.50;5092596;28;20115;-60
2023/11/12 11:24:06;;;;;;;7.00;4.35;;;;;;;3.97;94.06;97365.78;5094243;28;20511;-58
2023/11/12 11:26:42;;;;;;;7.97;4.68;;;;;;;3.96;94.27;97359.75;5093934;28;20044;-61
2023/11/12 11:29:09;;;;;;;8.80;5.32;;;;;;;3.95;93.72;97370.50;5094054;28;20505;-61
2023/11/12 11:32:07;;;;;;;7.22;5.32;;;;;;;3.97;93.80;97363.97;5092676;28;20413;-61